Time;durP1;ratioP1;P1;durP2;ratioP2;P2;SDS_P1;SDS_P2;PMS_P1;PMS_P2;Temp;Humidity;BMP_temperature;BMP_pressure;BME280_temperature;BME280_humidity;BME280_pressure;Samples;Min_cycle;Max_cycle;Signal;HPM_P1;HPM_P2
2021/07/01 00:00:39;;;;;;;0.30;0.30;;;;;;;17.60;76.74;98536.06;5106810;28;20562;-85
2021/07/01 00:03:22;;;;;;;0.20;0.20;;;;;;;17.71;76.33;98559.19;5106285;28;20979;-84
2021/07/01 00:06:06;;;;;;;0.27;0.27;;;;;;;17.62;76.39;98530.56;5168217;27;20557;-86
2021/07/01 00:08:50;;;;;;;0.47;0.47;;;;;;;17.71;76.23;98547.63;5127013;27;20552;-85
2021/07/01 00:11:34;;;;;;;0.40;0.40;;;;;;;17.60;76.52;98544.13;5148765;27;20556;-85
2021/07/01 00:14:18;;;;;;;0.40;0.40;;;;;;;17.56;76.62;98539.19;5107058;28;20567;-85
2021/07/01 00:17:02;;;;;;;0.40;0.40;;;;;;;17.51;77.08;98538.81;5147462;27;20568;-85
2021/07/01 00:19:44;;;;;;;0.30;0.30;;;;;;;17.44;77.04;98535.84;5107562;28;20548;-85
2021/07/01 00:22:27;;;;;;;0.30;0.30;;;;;;;17.45;77.84;98550.94;5106838;28;20560;-83
2021/07/01 00:25:14;;;;;;;0.47;0.47;;;;;;;17.47;77.88;98557.00;5106222;28;20559;-85
2021/07/01 00:27:58;;;;;;;0.30;0.30;;;;;;;17.35;78.14;98547.44;5169308;27;20553;-84
2021/07/01 00:30:43;;;;;;;0.33;0.33;;;;;;;17.32;78.40;98545.06;5107513;28;20550;-84
2021/07/01 00:33:26;;;;;;;0.40;0.40;;;;;;;17.24;78.70;98540.44;5147933;27;20541;-85
2021/07/01 00:36:09;;;;;;;0.50;0.50;;;;;;;17.20;78.73;98538.19;5190352;27;20516;-83
2021/07/01 00:38:52;;;;;;;0.37;0.37;;;;;;;17.18;78.72;98535.66;5128246;27;20554;-86
2021/07/01 00:41:37;;;;;;;0.70;0.70;;;;;;;17.27;78.89;98555.38;5127170;27;20557;-85
2021/07/01 00:44:20;;;;;;;0.50;0.50;;;;;;;17.17;79.17;98543.84;5168734;27;20558;-83
2021/07/01 00:47:03;;;;;;;0.50;0.50;;;;;;;17.13;79.72;98548.66;5169196;27;20555;-83
2021/07/01 00:49:44;;;;;;;0.60;0.50;;;;;;;17.18;79.60;98556.25;5182003;27;1506260;-84
2021/07/01 00:52:27;;;;;;;0.40;0.40;;;;;;;17.08;79.71;98539.34;5107583;28;20563;-84
2021/07/01 00:55:13;;;;;;;0.53;0.53;;;;;;;17.10;79.29;98553.44;5107027;28;20548;-84
2021/07/01 00:57:59;;;;;;;0.67;0.50;;;;;;;17.03;79.44;98541.63;5107329;28;20556;-84
2021/07/01 01:00:50;;;;;;;0.90;0.50;;;;;;;17.09;79.67;98559.78;5180764;27;1530709;-85
2021/07/01 01:03:37;;;;;;;0.53;0.53;;;;;;;16.99;79.61;98553.59;5119658;27;20562;-85
2021/07/01 01:06:20;;;;;;;0.40;0.40;;;;;;;17.05;79.50;98556.56;5164234;27;20553;-83
2021/07/01 01:09:08;;;;;;;0.70;0.70;;;;;;;17.04;79.61;98554.88;5106899;28;20556;-85
2021/07/01 01:11:50;;;;;;;0.67;0.67;;;;;;;17.08;79.94;98556.25;5169440;27;21037;-83
2021/07/01 01:14:34;;;;;;;0.50;0.50;;;;;;;17.09;79.72;98560.63;5119438;27;20563;-85
2021/07/01 01:17:20;;;;;;;0.57;0.57;;;;;;;17.10;79.32;98572.16;5106847;28;20548;-83
2021/07/01 01:20:04;;;;;;;0.50;0.50;;;;;;;17.11;79.24;98560.47;5148740;27;20557;-83
2021/07/01 01:23:04;;;;;;;0.40;0.40;;;;;;;17.03;79.28;98546.97;5148639;27;20555;-84
2021/07/01 01:25:48;;;;;;;0.50;0.50;;;;;;;16.96;79.54;98540.50;5107433;28;20573;-84
2021/07/01 01:28:32;;;;;;;0.20;0.20;;;;;;;16.98;79.67;98546.56;5107700;28;20560;-84
2021/07/01 01:31:17;;;;;;;0.17;0.17;;;;;;;17.04;79.60;98560.22;5127290;27;20542;-84
2021/07/01 01:34:01;;;;;;;0.50;0.50;;;;;;;17.02;79.49;98564.03;5169016;27;20527;-85
2021/07/01 01:36:49;;;;;;;0.30;0.30;;;;;;;16.91;79.63;98558.84;5169940;27;20582;-84
2021/07/01 01:39:31;;;;;;;0.20;0.20;;;;;;;16.87;79.98;98553.75;5106742;28;20555;-84
2021/07/01 01:42:21;;;;;;;0.30;0.30;;;;;;;16.83;80.54;98552.34;5106539;28;20557;-84
2021/07/01 01:45:04;;;;;;;0.30;0.30;;;;;;;16.74;80.29;98547.88;5148827;27;20558;-84
2021/07/01 01:47:51;;;;;;;0.40;0.40;;;;;;;16.79;80.11;98567.00;5107224;28;20556;-84
2021/07/01 01:50:35;;;;;;;0.30;0.30;;;;;;;16.74;80.27;98553.22;5107152;28;20563;-84
2021/07/01 01:53:16;;;;;;;0.20;0.20;;;;;;;16.62;80.47;98550.78;5189738;27;1275248;-87
2021/07/01 01:55:59;;;;;;;0.23;0.23;;;;;;;16.57;80.61;98556.53;5148287;27;20552;-85
2021/07/01 01:58:42;;;;;;;0.30;0.30;;;;;;;16.42;80.50;98533.91;5190870;27;20552;-85
2021/07/01 02:01:42;;;;;;;0.40;0.40;;;;;;;16.57;80.54;98561.91;5107754;28;21089;-85
2021/07/01 02:04:26;;;;;;;0.30;0.30;;;;;;;16.53;80.84;98557.84;5202987;27;20559;-85
2021/07/01 02:07:08;;;;;;;0.40;0.40;;;;;;;16.46;81.25;98554.03;5169978;27;20566;-85
2021/07/01 02:10:27;;;;;;;0.30;0.30;;;;;;;16.51;80.91;98567.81;5106878;28;20618;-83
2021/07/01 02:13:11;;;;;;;0.40;0.40;;;;;;;16.53;80.90;98581.91;5148652;27;20567;-83
2021/07/01 02:16:15;;;;;;;0.30;0.30;;;;;;;16.42;81.42;98564.16;5140024;27;20557;-82
2021/07/01 02:18:58;;;;;;;0.40;0.40;;;;;;;16.39;81.40;98563.59;5107181;28;20559;-83
2021/07/01 02:21:41;;;;;;;0.50;0.50;;;;;;;16.45;81.41;98585.25;5189073;27;1299151;-81
2021/07/01 02:24:38;;;;;;;0.20;0.20;;;;;;;16.26;81.55;98558.50;5189938;27;20550;-84
2021/07/01 02:27:20;;;;;;;0.20;0.20;;;;;;;16.35;81.86;98578.22;5106455;28;20556;-86
2021/07/01 02:30:06;;;;;;;0.53;0.53;;;;;;;16.28;81.75;98571.75;5107184;28;20552;-85
2021/07/01 02:32:52;;;;;;;0.30;0.30;;;;;;;16.36;81.79;98586.09;5107113;28;21266;-84
2021/07/01 02:35:37;;;;;;;0.37;0.37;;;;;;;16.29;81.54;98570.75;5106495;28;20562;-86
2021/07/01 02:38:51;;;;;;;0.33;0.33;;;;;;;16.28;81.67;98572.59;5169125;27;20559;-87
2021/07/01 02:41:33;;;;;;;0.20;0.20;;;;;;;16.38;81.42;98593.97;5169492;27;20551;-80
2021/07/01 02:44:15;;;;;;;0.50;0.50;;;;;;;16.37;82.36;98592.28;5106332;28;21105;-83
2021/07/01 02:47:17;;;;;;;0.20;0.20;;;;;;;16.33;82.70;98591.69;5190079;27;20557;-81
2021/07/01 02:50:00;;;;;;;0.40;0.40;;;;;;;16.29;82.29;98597.47;5147608;27;20563;-83
2021/07/01 02:52:50;;;;;;;0.60;0.50;;;;;;;16.25;82.35;98596.91;5127541;27;20551;-86
2021/07/01 02:55:34;;;;;;;0.20;0.20;;;;;;;15.95;82.04;98555.06;5168983;27;20527;-83
2021/07/01 02:58:17;;;;;;;0.43;0.43;;;;;;;16.15;82.14;98598.72;5181888;27;21312;-82
2021/07/01 03:01:18;;;;;;;0.30;0.30;;;;;;;16.13;82.23;98603.34;5106748;28;20555;-84
2021/07/01 03:04:02;;;;;;;0.30;0.30;;;;;;;15.94;82.47;98574.78;5148558;27;20561;-86
2021/07/01 03:06:45;;;;;;;0.33;0.30;;;;;;;16.02;82.68;98593.63;5169288;27;20554;-81
2021/07/01 03:09:29;;;;;;;0.20;0.20;;;;;;;16.01;82.94;98596.44;5106509;28;20568;-83
2021/07/01 03:12:12;;;;;;;0.20;0.20;;;;;;;15.87;82.73;98575.44;5148181;27;20561;-85
2021/07/01 03:14:55;;;;;;;0.40;0.40;;;;;;;15.88;83.01;98588.66;5168893;27;20566;-80
2021/07/01 03:17:40;;;;;;;0.20;0.20;;;;;;;15.95;82.85;98594.31;5106317;28;20562;-81
2021/07/01 03:20:21;;;;;;;0.30;0.30;;;;;;;15.90;83.18;98597.38;5126851;27;20555;-83
2021/07/01 03:23:23;;;;;;;0.33;0.30;;;;;;;15.79;83.14;98589.47;5148437;27;20563;-84
2021/07/01 03:26:06;;;;;;;0.40;0.40;;;;;;;15.88;83.17;98595.81;5106127;28;20574;-81
2021/07/01 03:28:49;;;;;;;0.30;0.30;;;;;;;15.87;83.59;98608.31;5106705;28;20893;-85
2021/07/01 03:31:36;;;;;;;0.40;0.40;;;;;;;15.86;83.52;98595.94;5106178;28;20564;-81
2021/07/01 03:34:18;;;;;;;0.30;0.30;;;;;;;15.90;83.20;98605.38;5147948;27;20567;-83
2021/07/01 03:37:00;;;;;;;0.20;0.20;;;;;;;15.85;83.47;98593.41;5106303;28;20555;-83
2021/07/01 03:40:03;;;;;;;0.40;0.40;;;;;;;15.66;83.30;98559.50;5148092;27;20556;-83
2021/07/01 03:42:50;;;;;;;0.50;0.50;;;;;;;15.87;83.50;98592.31;5148721;27;20561;-80
2021/07/01 03:45:33;;;;;;;0.37;0.37;;;;;;;15.98;83.05;98608.22;5106878;28;20544;-82
2021/07/01 03:48:15;;;;;;;0.57;0.37;;;;;;;15.95;82.69;98597.81;5106520;28;20566;-84
2021/07/01 03:51:17;;;;;;;0.30;0.30;;;;;;;16.08;82.95;98609.09;5107077;28;21331;-84
2021/07/01 03:54:10;;;;;;;0.60;0.60;;;;;;;16.11;82.67;98613.31;5140818;27;20563;-81
2021/07/01 03:56:53;;;;;;;0.60;0.60;;;;;;;16.04;82.65;98602.34;5148092;27;20564;-85
2021/07/01 03:59:41;;;;;;;0.70;0.70;;;;;;;16.01;82.74;98607.97;5168278;27;20552;-81
2021/07/01 04:02:42;;;;;;;0.53;0.53;;;;;;;16.11;82.64;98618.66;5108116;28;20556;-80
2021/07/01 04:05:40;;;;;;;0.30;0.30;;;;;;;15.90;82.75;98580.50;5181607;27;20541;-78
2021/07/01 04:08:22;;;;;;;0.50;0.40;;;;;;;16.14;82.81;98623.75;5118836;28;20564;-79
2021/07/01 04:11:10;;;;;;;0.70;0.70;;;;;;;16.18;82.66;98638.53;5119851;28;20588;-79
2021/07/01 04:13:52;;;;;;;0.30;0.30;;;;;;;16.19;82.55;98631.34;5129940;27;20598;-79
2021/07/01 04:16:55;;;;;;;0.93;0.50;;;;;;;16.23;82.47;98630.09;5137830;27;20581;-80
2021/07/01 04:19:56;;;;;;;0.57;0.57;;;;;;;16.27;82.04;98629.69;5107939;28;20564;-83
2021/07/01 04:22:59;;;;;;;0.50;0.50;;;;;;;16.32;82.02;98637.31;5151383;27;21026;-79
2021/07/01 04:26:05;;;;;;;0.50;0.50;;;;;;;16.34;82.37;98627.28;5109889;28;20524;-81
2021/07/01 04:28:50;;;;;;;0.30;0.30;;;;;;;16.31;82.23;98617.75;5110610;28;20564;-79
2021/07/01 04:31:33;;;;;;;0.30;0.30;;;;;;;16.38;81.70;98626.03;5150752;27;21055;-82
2021/07/01 04:34:18;;;;;;;0.30;0.30;;;;;;;16.48;81.73;98634.91;5107272;28;21066;-84
2021/07/01 04:37:02;;;;;;;0.40;0.40;;;;;;;16.42;81.48;98622.97;5107131;28;20582;-85
2021/07/01 04:39:52;;;;;;;0.40;0.40;;;;;;;16.46;81.50;98623.50;5107472;28;20566;-81
2021/07/01 04:42:39;;;;;;;0.30;0.30;;;;;;;16.54;80.92;98631.72;5149182;27;20561;-83
2021/07/01 04:45:24;;;;;;;0.43;0.43;;;;;;;16.60;80.96;98630.28;5106975;28;20570;-83
2021/07/01 04:48:09;;;;;;;0.60;0.60;;;;;;;16.70;80.91;98634.69;5120087;27;21102;-81
2021/07/01 04:50:55;;;;;;;0.30;0.30;;;;;;;16.76;80.42;98642.16;5129818;27;20526;-82
2021/07/01 04:53:56;;;;;;;0.50;0.50;;;;;;;16.66;80.67;98625.28;5151299;27;20571;-87
2021/07/01 04:56:57;;;;;;;0.40;0.40;;;;;;;16.72;80.52;98639.91;5090152;28;20587;-86
2021/07/01 04:59:39;;;;;;;0.83;0.80;;;;;;;16.70;80.63;98650.72;5180128;27;1537170;-81
2021/07/01 05:02:59;;;;;;;1.00;0.60;;;;;;;16.58;80.35;98633.09;5107376;28;20564;-81
2021/07/01 05:05:45;;;;;;;0.90;0.90;;;;;;;16.69;80.54;98646.38;5168624;27;21103;-85
2021/07/01 05:08:31;;;;;;;0.60;0.60;;;;;;;16.65;80.56;98644.97;5127113;27;20573;-83
2021/07/01 05:11:13;;;;;;;0.97;0.63;;;;;;;16.72;80.61;98655.94;5106759;28;20595;-82
2021/07/01 05:13:56;;;;;;;0.70;0.57;;;;;;;16.71;80.59;98660.44;5106070;28;20574;-83
2021/07/01 05:16:38;;;;;;;1.50;1.40;;;;;;;16.67;79.97;98659.06;5161226;27;20993;-81
2021/07/01 05:19:20;;;;;;;0.53;0.53;;;;;;;16.64;80.04;98662.00;5105076;28;20587;-84
2021/07/01 05:22:12;;;;;;;0.97;0.87;;;;;;;16.69;79.84;98657.06;5167776;27;21016;-83
2021/07/01 05:25:18;;;;;;;0.60;0.60;;;;;;;16.66;79.93;98640.47;5148599;27;20557;-84
2021/07/01 05:28:22;;;;;;;1.43;1.33;;;;;;;16.67;80.08;98648.34;5106488;28;20566;-81
2021/07/01 05:31:31;;;;;;;1.13;1.07;;;;;;;16.77;79.84;98654.56;5139326;27;20564;-86
2021/07/01 05:34:36;;;;;;;1.03;0.67;;;;;;;16.79;79.61;98644.56;5107133;28;20560;-84
2021/07/01 05:37:20;;;;;;;0.47;0.47;;;;;;;17.01;79.25;98659.50;5168433;27;20555;-81
2021/07/01 05:40:17;;;;;;;0.60;0.60;;;;;;;16.94;79.34;98622.75;5107251;28;20559;-85
2021/07/01 05:43:01;;;;;;;0.97;0.87;;;;;;;17.20;79.05;98656.78;5106225;28;20570;-85
2021/07/01 05:45:42;;;;;;;1.03;1.00;;;;;;;17.26;78.89;98660.75;5181185;27;1537147;-85
2021/07/01 05:48:26;;;;;;;0.30;0.30;;;;;;;17.29;78.49;98660.47;5147072;27;20552;-82
2021/07/01 05:51:27;;;;;;;1.13;0.90;;;;;;;17.32;78.31;98656.63;5166716;27;20544;-87
2021/07/01 05:54:18;;;;;;;0.83;0.83;;;;;;;17.35;77.84;98665.22;5168583;27;20562;-86
2021/07/01 05:57:05;;;;;;;0.50;0.50;;;;;;;17.36;78.09;98653.53;5110669;27;20581;-82
2021/07/01 05:59:48;;;;;;;0.43;0.43;;;;;;;17.58;77.85;98676.47;5166853;27;20555;-82
2021/07/01 06:02:32;;;;;;;0.60;0.60;;;;;;;17.67;77.29;98674.81;5104493;28;20568;-82
2021/07/01 06:05:14;;;;;;;0.40;0.40;;;;;;;17.69;77.11;98678.16;5148067;27;20548;-82
2021/07/01 06:08:14;;;;;;;0.67;0.60;;;;;;;17.68;77.08;98681.84;5105541;28;20580;-79
2021/07/01 06:11:02;;;;;;;0.40;0.40;;;;;;;17.64;77.03;98675.94;5107336;28;20547;-84
2021/07/01 06:13:46;;;;;;;0.80;0.80;;;;;;;17.62;76.50;98679.69;5105703;28;20571;-81
2021/07/01 06:16:32;;;;;;;0.60;0.60;;;;;;;17.62;76.29;98687.72;5106268;28;20577;-82
2021/07/01 06:19:16;;;;;;;0.67;0.67;;;;;;;17.63;75.78;98694.78;5167417;27;20535;-80
2021/07/01 06:21:59;;;;;;;0.50;0.50;;;;;;;17.47;75.96;98676.63;5106249;28;20548;-81
2021/07/01 06:24:45;;;;;;;0.30;0.30;;;;;;;17.56;75.47;98694.50;5106305;28;20578;-80
2021/07/01 06:27:34;;;;;;;0.60;0.60;;;;;;;17.53;75.80;98690.28;5118380;27;20525;-82
2021/07/01 06:30:20;;;;;;;0.40;0.40;;;;;;;17.65;75.65;98695.53;5085686;28;20553;-82
2021/07/01 06:33:05;;;;;;;1.03;0.83;;;;;;;17.76;75.70;98706.06;5106271;28;20564;-84
2021/07/01 06:35:50;;;;;;;0.40;0.40;;;;;;;17.82;75.30;98706.31;5180156;27;1543945;-84
2021/07/01 06:38:37;;;;;;;0.40;0.40;;;;;;;17.89;75.46;98693.19;5146646;27;20556;-82
2021/07/01 06:41:54;;;;;;;0.50;0.50;;;;;;;17.91;74.20;98677.81;5106761;28;21061;-80
2021/07/01 06:44:58;;;;;;;0.33;0.33;;;;;;;18.18;73.77;98707.31;5141876;27;20560;-80
2021/07/01 06:47:59;;;;;;;0.73;0.73;;;;;;;18.36;73.82;98710.06;5105973;28;20574;-88
2021/07/01 06:51:01;;;;;;;0.60;0.60;;;;;;;18.48;73.18;98697.31;5168553;27;20559;-85
2021/07/01 06:54:03;;;;;;;0.97;0.93;;;;;;;18.44;73.53;98698.59;5147457;27;20564;-85
2021/07/01 06:57:05;;;;;;;0.60;0.60;;;;;;;18.37;73.32;98710.91;5118250;27;20926;-83
2021/07/01 06:59:48;;;;;;;0.77;0.63;;;;;;;18.38;72.52;98721.50;5169306;27;20539;-82
2021/07/01 07:02:33;;;;;;;0.40;0.40;;;;;;;18.49;72.40;98720.47;5161945;27;20587;-83
2021/07/01 07:05:18;;;;;;;0.63;0.63;;;;;;;18.64;72.46;98719.00;5167116;27;21087;-80
2021/07/01 07:08:09;;;;;;;0.53;0.53;;;;;;;18.78;72.06;98715.81;5106174;28;20548;-88
2021/07/01 07:10:52;;;;;;;0.50;0.50;;;;;;;18.96;71.61;98723.88;5107023;28;20556;-82
2021/07/01 07:13:35;;;;;;;0.57;0.50;;;;;;;19.25;70.25;98729.03;5104878;28;20577;-81
2021/07/01 07:16:20;;;;;;;0.50;0.50;;;;;;;19.65;69.50;98721.34;5105895;28;20585;-83
2021/07/01 07:19:04;;;;;;;0.57;0.57;;;;;;;20.13;68.21;98720.00;5106530;28;21058;-81
2021/07/01 07:21:50;;;;;;;0.60;0.60;;;;;;;20.44;67.03;98713.09;5169158;27;20551;-84
2021/07/01 07:24:33;;;;;;;0.50;0.50;;;;;;;20.69;66.26;98727.50;5166781;27;20552;-82
2021/07/01 07:27:18;;;;;;;0.53;0.53;;;;;;;20.69;65.70;98726.66;5079731;28;21084;-80
2021/07/01 07:30:00;;;;;;;0.30;0.30;;;;;;;20.63;65.65;98728.16;5135132;27;20574;-81
2021/07/01 07:32:41;;;;;;;0.60;0.60;;;;;;;20.41;64.61;98717.94;5176238;27;1297536;-82
2021/07/01 07:35:27;;;;;;;0.67;0.67;;;;;;;20.29;65.20;98709.28;5170581;27;20567;-82
2021/07/01 07:38:27;;;;;;;0.47;0.47;;;;;;;20.21;66.02;98721.88;5104635;28;20559;-82
2021/07/01 07:41:10;;;;;;;0.70;0.67;;;;;;;20.10;66.92;98722.97;5167120;27;20547;-80
2021/07/01 07:43:53;;;;;;;0.70;0.60;;;;;;;19.98;66.48;98719.72;5167056;27;21116;-80
2021/07/01 07:46:35;;;;;;;0.60;0.60;;;;;;;20.04;66.21;98728.97;5146660;27;20571;-83
2021/07/01 07:49:17;;;;;;;0.87;0.87;;;;;;;20.04;66.25;98707.47;5105053;28;20560;-83
2021/07/01 07:52:04;;;;;;;0.73;0.73;;;;;;;20.40;65.89;98721.63;5105178;28;20586;-84
2021/07/01 07:54:49;;;;;;;1.53;1.43;;;;;;;20.95;64.71;98719.31;5105113;28;20566;-84
2021/07/01 07:57:35;;;;;;;1.07;0.70;;;;;;;21.67;64.02;98717.72;5117824;27;20937;-82
2021/07/01 08:00:19;;;;;;;0.60;0.60;;;;;;;22.07;61.21;98716.03;5117342;27;20592;-82
2021/07/01 08:03:06;;;;;;;0.63;0.30;;;;;;;22.12;59.39;98695.63;5101797;28;20568;-83
2021/07/01 08:05:50;;;;;;;1.70;0.77;;;;;;;22.33;59.28;98715.78;5125057;27;20558;-82
2021/07/01 08:08:44;;;;;;;0.70;0.70;;;;;;;22.37;60.04;98709.88;5146576;27;20568;-82
2021/07/01 08:11:26;;;;;;;0.57;0.57;;;;;;;22.76;57.84;98725.22;5166355;27;20575;-80
2021/07/01 08:14:08;;;;;;;0.40;0.40;;;;;;;22.98;56.76;98739.81;5172320;27;21094;-83
2021/07/01 08:16:52;;;;;;;0.40;0.40;;;;;;;22.86;56.17;98742.09;5133563;27;20579;-80
2021/07/01 08:19:35;;;;;;;1.47;0.67;;;;;;;22.68;57.50;98749.56;5148102;27;20557;-81
2021/07/01 08:22:19;;;;;;;0.90;0.50;;;;;;;22.25;57.73;98727.44;5167455;27;22456;-81
2021/07/01 08:25:01;;;;;;;0.60;0.60;;;;;;;22.13;58.31;98742.31;5104957;28;20570;-82
2021/07/01 08:28:27;;;;;;;0.67;0.60;;;;;;;21.86;57.87;98713.84;5101327;28;20560;-81
2021/07/01 08:31:12;;;;;;;1.00;0.60;;;;;;;22.12;58.13;98746.03;5143509;27;20561;-82
2021/07/01 08:34:10;;;;;;;0.60;0.60;;;;;;;22.19;58.21;98745.16;5095949;28;21056;-80
2021/07/01 08:36:53;;;;;;;0.60;0.60;;;;;;;22.20;58.33;98725.25;5137539;27;21065;-81
2021/07/01 08:39:39;;;;;;;0.87;0.80;;;;;;;22.05;57.26;98726.13;5104761;28;20564;-86
2021/07/01 08:42:27;;;;;;;0.57;0.53;;;;;;;22.03;57.61;98738.94;5167760;27;21066;-84
2021/07/01 08:45:14;;;;;;;0.50;0.50;;;;;;;21.95;57.89;98745.16;5105482;28;20564;-82
2021/07/01 08:48:01;;;;;;;1.30;0.93;;;;;;;21.83;58.47;98752.78;5126171;27;20554;-83
2021/07/01 08:50:58;;;;;;;0.83;0.63;;;;;;;21.49;58.86;98747.56;5101970;28;20571;-81
2021/07/01 08:53:57;;;;;;;0.97;0.70;;;;;;;21.26;59.27;98767.22;5104398;28;20997;-80
2021/07/01 08:56:40;;;;;;;0.90;0.90;;;;;;;20.87;59.45;98746.22;5167279;27;20566;-79
2021/07/01 08:59:24;;;;;;;0.70;0.60;;;;;;;20.61;60.58;98729.31;5146106;27;20571;-81
2021/07/01 09:02:15;;;;;;;1.13;0.60;;;;;;;20.29;60.54;98693.16;5146582;27;20553;-83
2021/07/01 09:05:01;;;;;;;0.80;0.80;;;;;;;20.56;60.75;98759.38;5126095;27;21095;-83
2021/07/01 09:07:50;;;;;;;0.50;0.50;;;;;;;20.40;60.84;98753.91;5181736;27;20576;-84
2021/07/01 09:10:34;;;;;;;0.70;0.50;;;;;;;20.33;61.29;98780.59;5167549;27;21083;-81
2021/07/01 09:13:21;;;;;;;0.70;0.70;;;;;;;19.95;61.33;98748.75;5105363;28;20560;-78
2021/07/01 09:16:05;;;;;;;0.50;0.43;;;;;;;20.11;62.84;98764.16;5135510;27;21205;-78
2021/07/01 09:18:48;;;;;;;0.63;0.63;;;;;;;20.16;63.04;98773.41;5105312;28;20940;-79
2021/07/01 09:21:33;;;;;;;1.03;0.80;;;;;;;20.29;63.48;98773.00;5104545;28;20572;-77
2021/07/01 09:24:27;;;;;;;0.57;0.50;;;;;;;20.46;63.43;98763.22;5102280;28;20578;-80
2021/07/01 09:27:13;;;;;;;0.70;0.70;;;;;;;20.67;62.52;98777.94;5102115;28;20564;-78
2021/07/01 09:30:04;;;;;;;0.50;0.50;;;;;;;20.84;61.34;98784.25;5125539;27;20585;-79
2021/07/01 09:32:56;;;;;;;0.63;0.40;;;;;;;20.95;60.54;98786.63;5101189;28;21155;-78
2021/07/01 09:35:39;;;;;;;0.40;0.40;;;;;;;20.97;60.30;98784.63;5145120;27;20572;-79
2021/07/01 09:38:26;;;;;;;0.73;0.73;;;;;;;20.94;60.01;98790.31;5104283;28;20560;-78
2021/07/01 09:41:09;;;;;;;0.40;0.40;;;;;;;20.81;60.38;98768.41;5105239;28;20594;-76
2021/07/01 09:43:52;;;;;;;0.40;0.40;;;;;;;20.65;61.14;98752.19;5097912;28;21077;-77
2021/07/01 09:46:37;;;;;;;0.50;0.50;;;;;;;20.78;60.83;98790.25;5104020;28;20598;-78
2021/07/01 09:49:30;;;;;;;0.57;0.57;;;;;;;20.83;61.03;98787.09;5103610;28;20556;-79
2021/07/01 09:52:13;;;;;;;0.33;0.33;;;;;;;20.72;60.75;98782.84;5126640;27;20583;-79
2021/07/01 09:55:01;;;;;;;0.53;0.53;;;;;;;20.47;60.81;98738.00;5095722;28;20568;-80
2021/07/01 09:57:51;;;;;;;0.60;0.60;;;;;;;20.59;60.76;98769.84;5146123;27;20947;-81
2021/07/01 10:00:33;;;;;;;0.33;0.33;;;;;;;20.52;60.31;98755.34;5104799;28;20564;-81
2021/07/01 10:03:16;;;;;;;0.60;0.60;;;;;;;20.84;60.35;98797.69;5104041;27;21136;-80
2021/07/01 10:05:59;;;;;;;0.43;0.43;;;;;;;20.94;60.31;98795.72;5104480;28;20555;-78
2021/07/01 10:08:40;;;;;;;0.50;0.50;;;;;;;20.85;59.38;98790.47;5166625;27;1567086;-80
2021/07/01 10:11:41;;;;;;;0.43;0.43;;;;;;;20.80;60.18;98799.00;5104663;28;20576;-79
2021/07/01 10:14:26;;;;;;;0.60;0.60;;;;;;;20.73;60.02;98798.00;5105603;28;20568;-77
2021/07/01 10:17:11;;;;;;;0.40;0.40;;;;;;;20.69;59.67;98775.09;5104006;28;20602;-79
2021/07/01 10:20:06;;;;;;;0.53;0.53;;;;;;;20.91;59.76;98796.03;5106214;28;20564;-79
2021/07/01 10:22:49;;;;;;;0.57;0.50;;;;;;;20.75;59.10;98763.69;5147032;27;20565;-78
2021/07/01 10:25:32;;;;;;;0.60;0.60;;;;;;;21.14;58.54;98812.47;5103244;28;20568;-79
2021/07/01 10:28:17;;;;;;;0.60;0.60;;;;;;;21.28;58.43;98808.28;5103421;28;20555;-78
2021/07/01 10:31:04;;;;;;;0.40;0.40;;;;;;;21.43;58.49;98801.25;5144213;27;20575;-80
2021/07/01 10:33:46;;;;;;;1.70;0.83;;;;;;;21.52;57.65;98811.03;5103953;28;20560;-80
2021/07/01 10:36:28;;;;;;;0.50;0.50;;;;;;;21.19;57.55;98776.97;5125295;27;20527;-80
2021/07/01 10:39:12;;;;;;;0.40;0.40;;;;;;;21.02;58.62;98766.09;5145439;27;20561;-78
2021/07/01 10:42:01;;;;;;;0.30;0.30;;;;;;;21.15;58.65;98797.94;5125139;27;20588;-79
2021/07/01 10:44:45;;;;;;;0.53;0.43;;;;;;;20.97;58.76;98803.47;5105042;28;20560;-79
2021/07/01 10:57:54;;;;;;;0.30;0.30;;;;;;;21.45;59.73;98777.69;5169450;27;20554;-77
2021/07/01 11:00:41;;;;;;;0.67;0.60;;;;;;;21.50;59.03;98796.91;5101095;28;20564;-79
2021/07/01 11:03:27;;;;;;;0.43;0.40;;;;;;;21.43;58.78;98795.88;5104117;28;20560;-77
2021/07/01 11:06:20;;;;;;;0.40;0.40;;;;;;;21.45;58.76;98805.47;5103767;28;20570;-77
2021/07/01 11:09:03;;;;;;;0.50;0.50;;;;;;;21.59;58.00;98803.97;5104371;28;20566;-77
2021/07/01 11:12:00;;;;;;;0.30;0.30;;;;;;;21.92;57.85;98790.50;5103832;28;20580;-77
2021/07/01 11:25:21;;;;;;;0.63;0.63;;;;;;;21.96;55.45;98781.06;5145627;27;20521;-81
2021/07/01 11:28:17;;;;;;;0.50;0.50;;;;;;;21.64;56.47;98780.03;5161225;27;20551;-79
2021/07/01 11:31:03;;;;;;;0.40;0.37;;;;;;;21.51;56.76;98801.28;5104960;28;20558;-81
2021/07/01 11:33:51;;;;;;;0.40;0.40;;;;;;;21.29;57.53;98799.19;5105394;28;20918;-81
2021/07/01 11:36:34;;;;;;;0.63;0.63;;;;;;;21.09;57.74;98790.53;5155185;27;20559;-86
2021/07/01 11:39:23;;;;;;;0.30;0.30;;;;;;;21.06;58.09;98794.41;5105676;28;20575;-82
2021/07/01 11:42:05;;;;;;;0.40;0.40;;;;;;;21.15;58.45;98785.34;5160505;27;21010;-82
2021/07/01 11:44:48;;;;;;;0.40;0.40;;;;;;;21.26;58.12;98796.88;5105650;28;20560;-82
2021/07/01 11:47:34;;;;;;;0.43;0.43;;;;;;;21.09;58.35;98799.47;5166922;27;20575;-85
2021/07/01 11:50:20;;;;;;;0.63;0.30;;;;;;;20.89;57.83;98791.84;5105688;28;20561;-82
2021/07/01 11:53:03;;;;;;;0.40;0.40;;;;;;;20.91;58.10;98795.19;5105262;28;20552;-86
2021/07/01 11:55:45;;;;;;;0.33;0.33;;;;;;;20.87;58.18;98800.06;5155302;27;1542754;-83
2021/07/01 11:58:31;;;;;;;0.50;0.50;;;;;;;20.86;57.86;98802.94;5128599;27;20566;-85
2021/07/01 12:01:12;;;;;;;0.50;0.50;;;;;;;20.83;57.79;98798.69;5105459;28;20567;-86
2021/07/01 12:03:55;;;;;;;0.50;0.50;;;;;;;20.96;58.75;98809.84;5167736;27;20558;-85
2021/07/01 12:06:59;;;;;;;0.53;0.40;;;;;;;20.96;57.82;98804.47;5167144;27;21260;-80
2021/07/01 12:09:42;;;;;;;0.40;0.40;;;;;;;20.55;58.12;98740.72;5170231;27;20568;-87
2021/07/01 12:12:34;;;;;;;0.37;0.37;;;;;;;20.52;57.81;98741.06;5168607;27;20566;-83
2021/07/01 12:15:25;;;;;;;0.40;0.40;;;;;;;20.92;57.92;98813.88;5104561;28;20572;-86
2021/07/01 12:18:16;;;;;;;0.40;0.40;;;;;;;20.90;57.93;98815.88;5187425;27;20494;-84
2021/07/01 12:21:04;;;;;;;0.50;0.50;;;;;;;20.78;58.75;98795.63;5105251;28;20564;-84
2021/07/01 12:23:53;;;;;;;0.50;0.40;;;;;;;20.37;58.79;98754.25;5147532;27;20605;-84
2021/07/01 12:26:43;;;;;;;0.50;0.37;;;;;;;20.58;59.51;98802.28;5125758;27;20572;-80
2021/07/01 12:29:45;;;;;;;0.40;0.40;;;;;;;20.30;60.33;98794.34;5083859;27;20568;-84
2021/07/01 12:32:29;;;;;;;0.60;0.50;;;;;;;20.26;59.95;98822.59;5104434;28;21084;-82
2021/07/01 12:35:42;;;;;;;0.30;0.30;;;;;;;19.98;61.46;98819.19;5105450;28;20569;-87
2021/07/01 12:38:25;;;;;;;0.33;0.33;;;;;;;19.69;62.23;98819.44;5166240;27;20557;-83
2021/07/01 12:41:11;;;;;;;0.60;0.60;;;;;;;19.55;63.23;98817.28;5105767;28;20566;-86
2021/07/01 12:44:02;;;;;;;0.30;0.30;;;;;;;19.34;63.69;98819.41;5105103;28;20567;-83
2021/07/01 12:47:08;;;;;;;0.40;0.40;;;;;;;19.11;63.86;98796.66;5145023;27;20543;-82
2021/07/01 12:49:58;;;;;;;0.57;0.57;;;;;;;19.20;63.86;98827.97;5149749;27;20567;-82
2021/07/01 12:52:44;;;;;;;0.27;0.27;;;;;;;19.22;64.02;98823.31;5165258;27;1564634;-81
2021/07/01 12:55:28;;;;;;;0.20;0.20;;;;;;;19.19;64.05;98813.69;5124902;27;21086;-82
2021/07/01 12:58:10;;;;;;;0.30;0.30;;;;;;;19.19;63.80;98804.78;5123794;27;20578;-84
2021/07/01 13:00:53;;;;;;;0.40;0.40;;;;;;;19.27;63.94;98815.66;5125674;27;20565;-87
2021/07/01 13:03:38;;;;;;;0.30;0.30;;;;;;;19.36;63.65;98812.03;5146439;27;20561;-81
2021/07/01 13:06:20;;;;;;;0.40;0.37;;;;;;;19.44;64.01;98825.53;5105380;28;20582;-79
2021/07/01 13:09:03;;;;;;;1.37;0.50;;;;;;;19.46;63.44;98828.94;5166607;27;20527;-81
2021/07/01 13:11:46;;;;;;;0.50;0.50;;;;;;;19.45;63.10;98829.06;5105585;28;21066;-81
2021/07/01 13:14:31;;;;;;;0.53;0.53;;;;;;;19.25;63.28;98788.09;5136571;27;20557;-80
2021/07/01 13:17:17;;;;;;;0.83;0.83;;;;;;;19.65;63.37;98826.13;5104754;28;20564;-83
2021/07/01 13:20:04;;;;;;;1.07;0.53;;;;;;;19.64;62.47;98819.06;5125865;27;20577;-80
2021/07/01 13:22:48;;;;;;;1.80;0.93;;;;;;;19.82;61.58;98843.22;5137022;27;20572;-79
2021/07/01 13:25:30;;;;;;;0.40;0.40;;;;;;;19.76;62.25;98833.13;5146079;27;20561;-81
2021/07/01 13:28:14;;;;;;;0.50;0.43;;;;;;;19.65;62.43;98830.66;5104354;28;20566;-81